VJC815 VVTS-VVDN
Flight info
| Callsign | VJC815 |
|---|---|
| Flight time | 1h 19m |
| Altitude | 37000 |
| Route | PATMA5P PATMA Q2 SADAS/K0841F290 Q7 MUMGA Q1 SADIN SADIN1D |
| Aircraft | A321/M-SDE3FGHIRWY/LB1 |
Departure
| Time | 2026-04-23 05:49 |
|---|---|
| Airport | Tan Son Nhat International Airport (VVTS) |
Arrival
| Time | 2026-04-23 07:09 |
|---|---|
| Airport | Da Nang International Airport (VVDN) |
| Time | Latitude | Longitude | Altitude | Speed | Heading |
|---|---|---|---|---|---|
| 2026-04-23 05:10 | 10.81326 | 106.66119 | 39 ft | 0 kts | 95° |
| 2026-04-23 05:38 | 10.81327 | 106.66113 | 39 ft | 4 kts | 95° |
| 2026-04-23 05:38 | 10.81329 | 106.66085 | 36 ft | 4 kts | 94° |
| 2026-04-23 05:38 | 10.81331 | 106.66058 | 40 ft | 4 kts | 91° |
| 2026-04-23 05:39 | 10.81330 | 106.66037 | 38 ft | 2 kts | 75° |
| 2026-04-23 05:39 | 10.81326 | 106.66026 | 37 ft | 2 kts | 38° |
| 2026-04-23 05:39 | 10.81317 | 106.66020 | 39 ft | 2 kts | 8° |
| 2026-04-23 05:39 | 10.81306 | 106.66019 | 37 ft | 2 kts | 4° |
| 2026-04-23 05:40 | 10.81303 | 106.66018 | 35 ft | 0 kts | 4° |
| 2026-04-23 05:41 | 10.81329 | 106.66021 | 37 ft | 5 kts | 5° |
| 2026-04-23 05:41 | 10.81367 | 106.66024 | 39 ft | 6 kts | 5° |
| 2026-04-23 05:42 | 10.81417 | 106.66029 | 39 ft | 7 kts | 5° |
| 2026-04-23 05:42 | 10.81473 | 106.66034 | 38 ft | 12 kts | 5° |
| 2026-04-23 05:42 | 10.81564 | 106.66042 | 39 ft | 12 kts | 5° |
| 2026-04-23 05:42 | 10.81640 | 106.66049 | 37 ft | 10 kts | 5° |
| 2026-04-23 05:43 | 10.81706 | 106.66055 | 39 ft | 9 kts | 5° |
| 2026-04-23 05:43 | 10.81764 | 106.66061 | 39 ft | 8 kts | 5° |
| 2026-04-23 05:43 | 10.81815 | 106.66066 | 39 ft | 7 kts | 6° |
| 2026-04-23 05:43 | 10.81855 | 106.66083 | 37 ft | 6 kts | 37° |
| 2026-04-23 05:44 | 10.81878 | 106.66113 | 39 ft | 5 kts | 63° |
| 2026-04-23 05:44 | 10.81890 | 106.66144 | 39 ft | 6 kts | 68° |
| 2026-04-23 05:44 | 10.81918 | 106.66217 | 39 ft | 15 kts | 69° |
| 2026-04-23 05:44 | 10.81953 | 106.66310 | 39 ft | 13 kts | 69° |
| 2026-04-23 05:45 | 10.81985 | 106.66396 | 39 ft | 13 kts | 69° |
| 2026-04-23 05:45 | 10.82016 | 106.66477 | 39 ft | 12 kts | 69° |
| 2026-04-23 05:45 | 10.82044 | 106.66552 | 39 ft | 11 kts | 69° |
| 2026-04-23 05:45 | 10.82070 | 106.66623 | 39 ft | 10 kts | 69° |
| 2026-04-23 05:46 | 10.82099 | 106.66698 | 39 ft | 13 kts | 69° |
| 2026-04-23 05:46 | 10.82129 | 106.66779 | 38 ft | 12 kts | 69° |
| 2026-04-23 05:46 | 10.82158 | 106.66854 | 37 ft | 11 kts | 69° |
| 2026-04-23 05:46 | 10.82183 | 106.66921 | 39 ft | 10 kts | 69° |
| 2026-04-23 05:47 | 10.82206 | 106.66978 | 39 ft | 8 kts | 64° |
| 2026-04-23 05:47 | 10.82243 | 106.67006 | 39 ft | 6 kts | 9° |
| 2026-04-23 05:47 | 10.82283 | 106.66997 | 39 ft | 6 kts | 340° |
| 2026-04-23 05:47 | 10.82322 | 106.66969 | 38 ft | 7 kts | 306° |
| 2026-04-23 05:48 | 10.82335 | 106.66924 | 38 ft | 6 kts | 279° |
| 2026-04-23 05:48 | 10.82338 | 106.66882 | 38 ft | 6 kts | 269° |
| 2026-04-23 05:48 | 10.82329 | 106.66844 | 38 ft | 6 kts | 250° |
| 2026-04-23 05:48 | 10.82310 | 106.66790 | 37 ft | 16 kts | 249° |
| 2026-04-23 05:49 | 10.82184 | 106.66459 | 37 ft | 83 kts | 249° |
| 2026-04-23 05:49 | 10.81908 | 106.65727 | 40 ft | 136 kts | 249° |
| 2026-04-23 05:49 | 10.81526 | 106.64699 | 136 ft | 165 kts | 246° |
| 2026-04-23 05:49 | 10.81140 | 106.63643 | 795 ft | 160 kts | 247° |
| 2026-04-23 05:50 | 10.80737 | 106.62566 | 1322 ft | 165 kts | 246° |
| 2026-04-23 05:50 | 10.80297 | 106.61412 | 1673 ft | 185 kts | 246° |
| 2026-04-23 05:50 | 10.79809 | 106.60123 | 1968 ft | 205 kts | 247° |
| 2026-04-23 05:50 | 10.79275 | 106.58702 | 2183 ft | 226 kts | 246° |
| 2026-04-23 05:51 | 10.78676 | 106.57127 | 2416 ft | 251 kts | 245° |
| 2026-04-23 05:51 | 10.78023 | 106.55405 | 2886 ft | 265 kts | 246° |
| 2026-04-23 05:51 | 10.77583 | 106.53565 | 3654 ft | 273 kts | 266° |
| 2026-04-23 05:51 | 10.77881 | 106.51650 | 4419 ft | 278 kts | 291° |
| 2026-04-23 05:52 | 10.78924 | 106.49997 | 5188 ft | 280 kts | 316° |
| 2026-04-23 05:52 | 10.80543 | 106.48904 | 5939 ft | 282 kts | 340° |
| 2026-04-23 05:52 | 10.82467 | 106.48573 | 6662 ft | 283 kts | 4° |
| 2026-04-23 05:52 | 10.84436 | 106.48803 | 7349 ft | 286 kts | 8° |
| 2026-04-23 05:53 | 10.86425 | 106.49064 | 8006 ft | 290 kts | 8° |
| 2026-04-23 05:53 | 10.88440 | 106.49325 | 8650 ft | 294 kts | 8° |
| 2026-04-23 05:53 | 10.90475 | 106.49624 | 9271 ft | 298 kts | 14° |
| 2026-04-23 05:53 | 10.92416 | 106.50376 | 9869 ft | 300 kts | 31° |
| 2026-04-23 05:54 | 10.94082 | 106.51649 | 10433 ft | 301 kts | 46° |
| 2026-04-23 05:54 | 10.95438 | 106.53318 | 10754 ft | 315 kts | 53° |
| 2026-04-23 05:54 | 10.96806 | 106.55112 | 10872 ft | 335 kts | 53° |
| 2026-04-23 05:54 | 10.98274 | 106.57040 | 10996 ft | 354 kts | 53° |
| 2026-04-23 05:55 | 10.99808 | 106.59052 | 11362 ft | 363 kts | 52° |
| 2026-04-23 05:55 | 11.01368 | 106.61089 | 11882 ft | 367 kts | 52° |
| 2026-04-23 05:55 | 11.02945 | 106.63145 | 12446 ft | 370 kts | 52° |
| 2026-04-23 05:55 | 11.04540 | 106.65220 | 13015 ft | 373 kts | 52° |
| 2026-04-23 05:56 | 11.06145 | 106.67307 | 13585 ft | 376 kts | 52° |
| 2026-04-23 05:56 | 11.07761 | 106.69411 | 14090 ft | 379 kts | 52° |
| 2026-04-23 05:56 | 11.09388 | 106.71533 | 14598 ft | 382 kts | 52° |
| 2026-04-23 05:56 | 11.11028 | 106.73675 | 15095 ft | 384 kts | 52° |
| 2026-04-23 05:57 | 11.12676 | 106.75830 | 15590 ft | 387 kts | 52° |
| 2026-04-23 05:57 | 11.14336 | 106.77998 | 16073 ft | 390 kts | 52° |
| 2026-04-23 05:57 | 11.16011 | 106.80182 | 16554 ft | 392 kts | 52° |
| 2026-04-23 05:57 | 11.17697 | 106.82379 | 17031 ft | 395 kts | 52° |
| 2026-04-23 05:58 | 11.19389 | 106.84589 | 17493 ft | 397 kts | 52° |
| 2026-04-23 05:58 | 11.21095 | 106.86819 | 17951 ft | 400 kts | 52° |
| 2026-04-23 05:58 | 11.22810 | 106.89060 | 18358 ft | 402 kts | 52° |
| 2026-04-23 05:58 | 11.24536 | 106.91314 | 18731 ft | 405 kts | 52° |
| 2026-04-23 05:59 | 11.26277 | 106.93585 | 19097 ft | 408 kts | 52° |
| 2026-04-23 05:59 | 11.28029 | 106.95866 | 19453 ft | 410 kts | 52° |
| 2026-04-23 05:59 | 11.29798 | 106.98172 | 19809 ft | 413 kts | 52° |
| 2026-04-23 05:59 | 11.31571 | 107.00492 | 20155 ft | 416 kts | 52° |
| 2026-04-23 06:00 | 11.33350 | 107.02825 | 20503 ft | 418 kts | 52° |
| 2026-04-23 06:00 | 11.35177 | 107.05141 | 20839 ft | 421 kts | 48° |
| 2026-04-23 06:00 | 11.37331 | 107.07178 | 21176 ft | 424 kts | 38° |
| 2026-04-23 06:00 | 11.39708 | 107.08988 | 21514 ft | 427 kts | 37° |
| 2026-04-23 06:01 | 11.42105 | 107.10807 | 21852 ft | 429 kts | 37° |
| 2026-04-23 06:01 | 11.42901 | 107.11413 | 21954 ft | 430 kts | 37° |
| 2026-04-23 06:01 | 11.45306 | 107.13248 | 22283 ft | 433 kts | 37° |
| 2026-04-23 06:01 | 11.47690 | 107.15068 | 22617 ft | 435 kts | 37° |
| 2026-04-23 06:02 | 11.50119 | 107.16923 | 22946 ft | 438 kts | 37° |
| 2026-04-23 06:02 | 11.52563 | 107.18794 | 23272 ft | 440 kts | 37° |
| 2026-04-23 06:02 | 11.55020 | 107.20679 | 23577 ft | 442 kts | 37° |
| 2026-04-23 06:02 | 11.57487 | 107.22569 | 23863 ft | 444 kts | 37° |
| 2026-04-23 06:03 | 11.59965 | 107.24463 | 24158 ft | 446 kts | 37° |
| 2026-04-23 06:03 | 11.62455 | 107.26364 | 24446 ft | 447 kts | 37° |
| 2026-04-23 06:03 | 11.64948 | 107.28269 | 24745 ft | 449 kts | 37° |
| 2026-04-23 06:03 | 11.67451 | 107.30182 | 25034 ft | 450 kts | 37° |
| 2026-04-23 06:04 | 11.69964 | 107.32104 | 25324 ft | 452 kts | 37° |
| 2026-04-23 06:04 | 11.72480 | 107.34030 | 25611 ft | 453 kts | 37° |
| 2026-04-23 06:04 | 11.75007 | 107.35966 | 25894 ft | 454 kts | 37° |
| 2026-04-23 06:04 | 11.77538 | 107.37906 | 26176 ft | 456 kts | 37° |
| 2026-04-23 06:05 | 11.80046 | 107.39830 | 26450 ft | 457 kts | 37° |
| 2026-04-23 06:05 | 11.82599 | 107.41788 | 26723 ft | 459 kts | 37° |
| 2026-04-23 06:05 | 11.85160 | 107.43749 | 26993 ft | 460 kts | 37° |
| 2026-04-23 06:05 | 11.87723 | 107.45714 | 27264 ft | 462 kts | 37° |
| 2026-04-23 06:06 | 11.90298 | 107.47689 | 27516 ft | 464 kts | 37° |
| 2026-04-23 06:06 | 11.92883 | 107.49668 | 27765 ft | 465 kts | 37° |
| 2026-04-23 06:06 | 11.95478 | 107.51656 | 28004 ft | 467 kts | 37° |
| 2026-04-23 06:06 | 11.97808 | 107.53444 | 28223 ft | 468 kts | 37° |
| 2026-04-23 06:07 | 12.00418 | 107.55450 | 28467 ft | 470 kts | 37° |
| 2026-04-23 06:07 | 12.02152 | 107.56781 | 28625 ft | 471 kts | 37° |
| 2026-04-23 06:07 | 12.04776 | 107.58795 | 28863 ft | 472 kts | 37° |
| 2026-04-23 06:07 | 12.08269 | 107.61475 | 29193 ft | 475 kts | 37° |
| 2026-04-23 06:08 | 12.10907 | 107.63505 | 29442 ft | 476 kts | 37° |
| 2026-04-23 06:08 | 12.13558 | 107.65546 | 29682 ft | 477 kts | 37° |
| 2026-04-23 06:08 | 12.15349 | 107.66926 | 29908 ft | 476 kts | 37° |
| 2026-04-23 06:08 | 12.17989 | 107.68960 | 30199 ft | 475 kts | 37° |
| 2026-04-23 06:09 | 12.20632 | 107.70989 | 30497 ft | 474 kts | 37° |
| 2026-04-23 06:09 | 12.22567 | 107.72473 | 30732 ft | 473 kts | 37° |
| 2026-04-23 06:09 | 12.25204 | 107.74497 | 31052 ft | 471 kts | 37° |
| 2026-04-23 06:09 | 12.27821 | 107.76510 | 31367 ft | 470 kts | 37° |
| 2026-04-23 06:10 | 12.30506 | 107.78416 | 31693 ft | 469 kts | 30° |
| 2026-04-23 06:10 | 12.33409 | 107.79840 | 32000 ft | 468 kts | 20° |
| 2026-04-23 06:10 | 12.36534 | 107.80754 | 32311 ft | 468 kts | 11° |
| 2026-04-23 06:10 | 12.39765 | 107.81121 | 32619 ft | 468 kts | 2° |
| 2026-04-23 06:11 | 12.43022 | 107.81184 | 32923 ft | 467 kts | 2° |
| 2026-04-23 06:11 | 12.46275 | 107.81245 | 33250 ft | 467 kts | 2° |
| 2026-04-23 06:11 | 12.49517 | 107.81308 | 33578 ft | 466 kts | 2° |
| 2026-04-23 06:11 | 12.52751 | 107.81376 | 33893 ft | 465 kts | 2° |
| 2026-04-23 06:12 | 12.55981 | 107.81443 | 34187 ft | 464 kts | 2° |
| 2026-04-23 06:12 | 12.59208 | 107.81506 | 34488 ft | 462 kts | 2° |
| 2026-04-23 06:12 | 12.65618 | 107.81626 | 35092 ft | 459 kts | 2° |
| 2026-04-23 06:13 | 12.68810 | 107.81686 | 35391 ft | 457 kts | 2° |
| 2026-04-23 06:13 | 12.71940 | 107.81748 | 35688 ft | 456 kts | 2° |
| 2026-04-23 06:13 | 12.75104 | 107.81813 | 35984 ft | 454 kts | 2° |
| 2026-04-23 06:13 | 12.78215 | 107.81874 | 36268 ft | 453 kts | 2° |
| 2026-04-23 06:14 | 12.81360 | 107.81935 | 36544 ft | 451 kts | 2° |
| 2026-04-23 06:14 | 12.84497 | 107.81995 | 36753 ft | 451 kts | 1° |
| 2026-04-23 06:14 | 12.90676 | 107.82115 | 36812 ft | 448 kts | 2° |
| 2026-04-23 06:15 | 12.96896 | 107.82247 | 36807 ft | 447 kts | 2° |
| 2026-04-23 06:15 | 13.03115 | 107.82374 | 36808 ft | 447 kts | 2° |
| 2026-04-23 06:16 | 13.09338 | 107.82496 | 36810 ft | 447 kts | 2° |
| 2026-04-23 06:16 | 13.15517 | 107.82618 | 36810 ft | 447 kts | 1° |
| 2026-04-23 06:17 | 13.21752 | 107.82743 | 36811 ft | 447 kts | 1° |
| 2026-04-23 06:17 | 13.27982 | 107.82864 | 36813 ft | 447 kts | 2° |
| 2026-04-23 06:18 | 13.34075 | 107.84008 | 36817 ft | 446 kts | 21° |
| 2026-04-23 06:18 | 13.39729 | 107.86629 | 36820 ft | 446 kts | 25° |
| 2026-04-23 06:19 | 13.45366 | 107.89312 | 36826 ft | 446 kts | 25° |
| 2026-04-23 06:19 | 13.51006 | 107.91987 | 36826 ft | 446 kts | 25° |
| 2026-04-23 06:20 | 13.56637 | 107.94656 | 36827 ft | 446 kts | 25° |
| 2026-04-23 06:20 | 13.62268 | 107.97331 | 36828 ft | 446 kts | 25° |
| 2026-04-23 06:21 | 13.67864 | 108.00002 | 36832 ft | 446 kts | 25° |
| 2026-04-23 06:21 | 13.73501 | 108.02697 | 36831 ft | 446 kts | 25° |
| 2026-04-23 06:22 | 13.79133 | 108.05392 | 36831 ft | 446 kts | 25° |
| 2026-04-23 06:22 | 13.84774 | 108.08085 | 36835 ft | 446 kts | 25° |
| 2026-04-23 06:23 | 13.90410 | 108.10771 | 36837 ft | 446 kts | 25° |
| 2026-04-23 06:23 | 13.96035 | 108.13462 | 36841 ft | 446 kts | 25° |
| 2026-04-23 06:24 | 14.01951 | 108.15302 | 36839 ft | 445 kts | 6° |
| 2026-04-23 06:24 | 14.08144 | 108.15527 | 36840 ft | 446 kts | 1° |
| 2026-04-23 06:25 | 14.14352 | 108.15658 | 36838 ft | 446 kts | 1° |
| 2026-04-23 06:25 | 14.20568 | 108.15799 | 36843 ft | 446 kts | 1° |
| 2026-04-23 06:26 | 14.26778 | 108.15930 | 36845 ft | 447 kts | 1° |
| 2026-04-23 06:26 | 14.32995 | 108.16062 | 36851 ft | 446 kts | 1° |
| 2026-04-23 06:27 | 14.39211 | 108.16203 | 36852 ft | 446 kts | 1° |
| 2026-04-23 06:27 | 14.45427 | 108.16350 | 36851 ft | 446 kts | 1° |
| 2026-04-23 06:28 | 14.51433 | 108.16481 | 36851 ft | 446 kts | 1° |
| 2026-04-23 06:28 | 14.57635 | 108.16604 | 36856 ft | 445 kts | 1° |
| 2026-04-23 06:29 | 14.63829 | 108.16733 | 36859 ft | 445 kts | 1° |
| 2026-04-23 06:29 | 14.70021 | 108.16873 | 36855 ft | 445 kts | 1° |
| 2026-04-23 06:30 | 14.73120 | 108.16949 | 36710 ft | 446 kts | 1° |
| 2026-04-23 06:30 | 14.76218 | 108.17023 | 36459 ft | 446 kts | 1° |
| 2026-04-23 06:30 | 14.79324 | 108.17095 | 36213 ft | 446 kts | 1° |
| 2026-04-23 06:30 | 14.82413 | 108.17161 | 35636 ft | 441 kts | 1° |
| 2026-04-23 06:31 | 14.85471 | 108.17226 | 34978 ft | 434 kts | 1° |
| 2026-04-23 06:31 | 14.88451 | 108.17291 | 34474 ft | 426 kts | 1° |
| 2026-04-23 06:31 | 14.91430 | 108.17355 | 33181 ft | 435 kts | 1° |
| 2026-04-23 06:31 | 14.94518 | 108.17422 | 31645 ft | 450 kts | 1° |
| 2026-04-23 06:32 | 14.97680 | 108.17494 | 30377 ft | 458 kts | 1° |
| 2026-04-23 06:32 | 15.00865 | 108.17565 | 29392 ft | 455 kts | 1° |
| 2026-04-23 06:32 | 15.04015 | 108.17635 | 28416 ft | 451 kts | 1° |
| 2026-04-23 06:32 | 15.07125 | 108.17704 | 27401 ft | 442 kts | 1° |
| 2026-04-23 06:33 | 15.10172 | 108.17770 | 26231 ft | 435 kts | 1° |
| 2026-04-23 06:33 | 15.13186 | 108.17833 | 25048 ft | 430 kts | 1° |
| 2026-04-23 06:33 | 15.16162 | 108.17896 | 23944 ft | 425 kts | 1° |
| 2026-04-23 06:33 | 15.19106 | 108.17957 | 22786 ft | 420 kts | 1° |
| 2026-04-23 06:34 | 15.22003 | 108.18019 | 21614 ft | 414 kts | 1° |
| 2026-04-23 06:34 | 15.24857 | 108.18079 | 20489 ft | 407 kts | 1° |
| 2026-04-23 06:34 | 15.27663 | 108.18138 | 19424 ft | 400 kts | 0° |
| 2026-04-23 06:34 | 15.30428 | 108.18200 | 18408 ft | 394 kts | 0° |
| 2026-04-23 06:35 | 15.33153 | 108.18264 | 17403 ft | 391 kts | 0° |
| 2026-04-23 06:35 | 15.35858 | 108.18326 | 16623 ft | 386 kts | 0° |
| 2026-04-23 06:35 | 15.38535 | 108.18384 | 15793 ft | 383 kts | 0° |
| 2026-04-23 06:35 | 15.41183 | 108.18443 | 15031 ft | 379 kts | 0° |
| 2026-04-23 06:36 | 15.43805 | 108.18502 | 14309 ft | 375 kts | 0° |
| 2026-04-23 06:36 | 15.46397 | 108.18561 | 13597 ft | 371 kts | 0° |
| 2026-04-23 06:36 | 15.48961 | 108.18619 | 12801 ft | 367 kts | 1° |
| 2026-04-23 06:36 | 15.51494 | 108.18674 | 12262 ft | 359 kts | 0° |
| 2026-04-23 06:37 | 15.53948 | 108.18724 | 12130 ft | 346 kts | 0° |
| 2026-04-23 06:37 | 15.56312 | 108.18773 | 12006 ft | 334 kts | 0° |
| 2026-04-23 06:37 | 15.58601 | 108.18820 | 11828 ft | 325 kts | 0° |
| 2026-04-23 06:37 | 15.60850 | 108.18869 | 11497 ft | 321 kts | 1° |
| 2026-04-23 06:38 | 15.63070 | 108.18918 | 11202 ft | 317 kts | 0° |
| 2026-04-23 06:38 | 15.65259 | 108.18965 | 10976 ft | 312 kts | 1° |
| 2026-04-23 06:38 | 15.67403 | 108.19009 | 10787 ft | 305 kts | 1° |
| 2026-04-23 06:38 | 15.69508 | 108.19051 | 10567 ft | 299 kts | 1° |
| 2026-04-23 06:39 | 15.71557 | 108.19093 | 10442 ft | 290 kts | 1° |
| 2026-04-23 06:39 | 15.73540 | 108.19133 | 10331 ft | 280 kts | 1° |
| 2026-04-23 06:39 | 15.75460 | 108.19173 | 10131 ft | 273 kts | 1° |
| 2026-04-23 06:39 | 15.77355 | 108.19212 | 9785 ft | 273 kts | 1° |
| 2026-04-23 06:40 | 15.79243 | 108.19253 | 9517 ft | 270 kts | 1° |
| 2026-04-23 06:40 | 15.81122 | 108.19293 | 9212 ft | 269 kts | 1° |
| 2026-04-23 06:40 | 15.82982 | 108.19335 | 8972 ft | 265 kts | 1° |
| 2026-04-23 06:40 | 15.84831 | 108.19376 | 8997 ft | 268 kts | 1° |
| 2026-04-23 06:41 | 15.86697 | 108.19417 | 8998 ft | 269 kts | 1° |
| 2026-04-23 06:41 | 15.88604 | 108.19459 | 9004 ft | 278 kts | 1° |
| 2026-04-23 06:41 | 15.90530 | 108.19502 | 9005 ft | 276 kts | 1° |
| 2026-04-23 06:41 | 15.92441 | 108.19544 | 9003 ft | 274 kts | 1° |
| 2026-04-23 06:42 | 15.94351 | 108.19588 | 9005 ft | 274 kts | 1° |
| 2026-04-23 06:42 | 15.96260 | 108.19630 | 9006 ft | 275 kts | 1° |
| 2026-04-23 06:42 | 15.98170 | 108.19671 | 9010 ft | 275 kts | 1° |
| 2026-04-23 06:42 | 16.00075 | 108.19803 | 9007 ft | 275 kts | 11° |
| 2026-04-23 06:43 | 16.01866 | 108.20464 | 9005 ft | 274 kts | 30° |
| 2026-04-23 06:43 | 16.03371 | 108.21654 | 9002 ft | 272 kts | 48° |
| 2026-04-23 06:43 | 16.04466 | 108.23239 | 8892 ft | 269 kts | 66° |
| 2026-04-23 06:43 | 16.05056 | 108.25073 | 8768 ft | 269 kts | 83° |
| 2026-04-23 06:44 | 16.05105 | 108.27013 | 8643 ft | 269 kts | 99° |
| 2026-04-23 06:44 | 16.04612 | 108.28871 | 8520 ft | 266 kts | 117° |
| 2026-04-23 06:44 | 16.03633 | 108.30486 | 8396 ft | 264 kts | 134° |
| 2026-04-23 06:44 | 16.02260 | 108.31727 | 8279 ft | 262 kts | 149° |
| 2026-04-23 06:45 | 16.00615 | 108.32507 | 8155 ft | 260 kts | 166° |
| 2026-04-23 06:45 | 15.98830 | 108.32765 | 8025 ft | 259 kts | 181° |
| 2026-04-23 06:45 | 15.97054 | 108.32493 | 7881 ft | 258 kts | 197° |
| 2026-04-23 06:45 | 15.95416 | 108.31778 | 7688 ft | 254 kts | 205° |
| 2026-04-23 06:46 | 15.93840 | 108.31028 | 7563 ft | 245 kts | 204° |
| 2026-04-23 06:46 | 15.92816 | 108.30547 | 7480 ft | 242 kts | 204° |
| 2026-04-23 06:46 | 15.91240 | 108.29918 | 7349 ft | 242 kts | 195° |
| 2026-04-23 06:46 | 15.89600 | 108.29573 | 7132 ft | 242 kts | 186° |
| 2026-04-23 06:47 | 15.87916 | 108.29512 | 6970 ft | 241 kts | 178° |
| 2026-04-23 06:47 | 15.86250 | 108.29726 | 6716 ft | 241 kts | 168° |
| 2026-04-23 06:47 | 15.84640 | 108.30212 | 6458 ft | 241 kts | 160° |
| 2026-04-23 06:47 | 15.83113 | 108.30940 | 6209 ft | 242 kts | 155° |
| 2026-04-23 06:48 | 15.81594 | 108.31704 | 5959 ft | 242 kts | 155° |
| 2026-04-23 06:48 | 15.80081 | 108.32460 | 5701 ft | 242 kts | 155° |
| 2026-04-23 06:48 | 15.78570 | 108.33213 | 5446 ft | 240 kts | 155° |
| 2026-04-23 06:48 | 15.77059 | 108.33967 | 5197 ft | 240 kts | 155° |
| 2026-04-23 06:49 | 15.75515 | 108.34625 | 5013 ft | 238 kts | 168° |
| 2026-04-23 06:49 | 15.73883 | 108.34772 | 4998 ft | 238 kts | 186° |
| 2026-04-23 06:49 | 15.72292 | 108.34364 | 4993 ft | 237 kts | 206° |
| 2026-04-23 06:49 | 15.70919 | 108.33438 | 4980 ft | 235 kts | 224° |
| 2026-04-23 06:50 | 15.69913 | 108.32112 | 4989 ft | 236 kts | 242° |
| 2026-04-23 06:50 | 15.69360 | 108.30520 | 4980 ft | 235 kts | 260° |
| 2026-04-23 06:50 | 15.69316 | 108.28827 | 4975 ft | 236 kts | 278° |
| 2026-04-23 06:50 | 15.69790 | 108.27200 | 4982 ft | 237 kts | 297° |
| 2026-04-23 06:51 | 15.70741 | 108.25808 | 4983 ft | 238 kts | 315° |
| 2026-04-23 06:51 | 15.72075 | 108.24800 | 4986 ft | 239 kts | 333° |
| 2026-04-23 06:51 | 15.73657 | 108.24290 | 4987 ft | 240 kts | 352° |
| 2026-04-23 06:51 | 15.75310 | 108.24052 | 4980 ft | 240 kts | 351° |
| 2026-04-23 06:52 | 15.76971 | 108.23813 | 4814 ft | 240 kts | 351° |
| 2026-04-23 06:52 | 15.78619 | 108.23575 | 4563 ft | 238 kts | 352° |
| 2026-04-23 06:52 | 15.80260 | 108.23337 | 4263 ft | 239 kts | 352° |
| 2026-04-23 06:52 | 15.81890 | 108.23100 | 3964 ft | 240 kts | 352° |
| 2026-04-23 06:53 | 15.83544 | 108.22861 | 3662 ft | 241 kts | 352° |
| 2026-04-23 06:53 | 15.85210 | 108.22619 | 3365 ft | 241 kts | 352° |
| 2026-04-23 06:53 | 15.86873 | 108.22379 | 3069 ft | 241 kts | 352° |
| 2026-04-23 06:53 | 15.88524 | 108.22139 | 2764 ft | 238 kts | 352° |
| 2026-04-23 06:54 | 15.90160 | 108.21902 | 2467 ft | 236 kts | 354° |
| 2026-04-23 06:54 | 15.91771 | 108.21668 | 2168 ft | 228 kts | 353° |
| 2026-04-23 06:54 | 15.93302 | 108.21446 | 1886 ft | 216 kts | 353° |
| 2026-04-23 06:54 | 15.94745 | 108.21237 | 1654 ft | 205 kts | 353° |
| 2026-04-23 06:55 | 15.96131 | 108.21036 | 1383 ft | 193 kts | 353° |
| 2026-04-23 06:55 | 15.97422 | 108.20848 | 1141 ft | 180 kts | 353° |
| 2026-04-23 06:55 | 15.98636 | 108.20672 | 926 ft | 173 kts | 354° |
| 2026-04-23 06:55 | 15.99817 | 108.20501 | 722 ft | 172 kts | 355° |
| 2026-04-23 06:56 | 16.01091 | 108.20356 | 1177 ft | 187 kts | 357° |
| 2026-04-23 06:56 | 16.02462 | 108.20212 | 1785 ft | 209 kts | 356° |
| 2026-04-23 06:56 | 16.03960 | 108.20075 | 2011 ft | 223 kts | 356° |
| 2026-04-23 06:56 | 16.05532 | 108.19951 | 2403 ft | 228 kts | 356° |
| 2026-04-23 06:57 | 16.07115 | 108.19831 | 2898 ft | 229 kts | 356° |
| 2026-04-23 06:57 | 16.08705 | 108.19699 | 3370 ft | 230 kts | 352° |
| 2026-04-23 06:57 | 16.10288 | 108.19440 | 3807 ft | 232 kts | 349° |
| 2026-04-23 06:57 | 16.11892 | 108.19132 | 3975 ft | 235 kts | 348° |
| 2026-04-23 06:58 | 16.13494 | 108.18813 | 3999 ft | 234 kts | 348° |
| 2026-04-23 06:58 | 16.15095 | 108.18495 | 4005 ft | 234 kts | 348° |
| 2026-04-23 06:58 | 16.16694 | 108.18181 | 4007 ft | 234 kts | 349° |
| 2026-04-23 06:58 | 16.18306 | 108.18221 | 4002 ft | 234 kts | 18° |
| 2026-04-23 06:59 | 16.19669 | 108.19116 | 4001 ft | 235 kts | 49° |
| 2026-04-23 06:59 | 16.20400 | 108.20624 | 4004 ft | 237 kts | 78° |
| 2026-04-23 06:59 | 16.20362 | 108.22327 | 4000 ft | 238 kts | 107° |
| 2026-04-23 06:59 | 16.19565 | 108.23817 | 4006 ft | 237 kts | 135° |
| 2026-04-23 07:00 | 16.18202 | 108.24747 | 4208 ft | 237 kts | 163° |
| 2026-04-23 07:00 | 16.16579 | 108.24959 | 4455 ft | 236 kts | 182° |
| 2026-04-23 07:00 | 16.14949 | 108.24927 | 4688 ft | 237 kts | 183° |
| 2026-04-23 07:00 | 16.13298 | 108.24891 | 4907 ft | 238 kts | 182° |
| 2026-04-23 07:01 | 16.11644 | 108.24859 | 4981 ft | 237 kts | 182° |
| 2026-04-23 07:01 | 16.09988 | 108.24829 | 4992 ft | 237 kts | 182° |
| 2026-04-23 07:01 | 16.08337 | 108.24799 | 5004 ft | 237 kts | 182° |
| 2026-04-23 07:01 | 16.06690 | 108.24769 | 5003 ft | 237 kts | 182° |
| 2026-04-23 07:02 | 16.05037 | 108.24738 | 4922 ft | 236 kts | 182° |
| 2026-04-23 07:02 | 16.03399 | 108.24707 | 4459 ft | 235 kts | 182° |
| 2026-04-23 07:02 | 16.01765 | 108.24677 | 4007 ft | 234 kts | 181° |
| 2026-04-23 07:02 | 16.00132 | 108.24649 | 3569 ft | 234 kts | 181° |
| 2026-04-23 07:03 | 15.98513 | 108.24614 | 3394 ft | 233 kts | 183° |
| 2026-04-23 07:03 | 15.96892 | 108.24501 | 3331 ft | 232 kts | 185° |
| 2026-04-23 07:03 | 15.95280 | 108.24343 | 2829 ft | 233 kts | 186° |
| 2026-04-23 07:03 | 15.93665 | 108.24170 | 2401 ft | 234 kts | 186° |
| 2026-04-23 07:04 | 15.92058 | 108.24000 | 2055 ft | 229 kts | 185° |
| 2026-04-23 07:04 | 15.90469 | 108.23816 | 1993 ft | 229 kts | 191° |
| 2026-04-23 07:04 | 15.89172 | 108.23077 | 1993 ft | 205 kts | 232° |
| 2026-04-23 07:04 | 15.88821 | 108.21770 | 1994 ft | 183 kts | 282° |
| 2026-04-23 07:05 | 15.89500 | 108.20799 | 2003 ft | 166 kts | 338° |
| 2026-04-23 07:05 | 15.90576 | 108.20840 | 2013 ft | 156 kts | 28° |
| 2026-04-23 07:05 | 15.91550 | 108.21356 | 2001 ft | 156 kts | 13° |
| 2026-04-23 07:05 | 15.92610 | 108.21359 | 1981 ft | 151 kts | 1° |
| 2026-04-23 07:06 | 15.93652 | 108.21311 | 1828 ft | 149 kts | 356° |
| 2026-04-23 07:06 | 15.94678 | 108.21209 | 1644 ft | 148 kts | 354° |
| 2026-04-23 07:06 | 15.95699 | 108.21082 | 1440 ft | 147 kts | 355° |
| 2026-04-23 07:06 | 15.96723 | 108.20943 | 1269 ft | 147 kts | 354° |
| 2026-04-23 07:07 | 15.97738 | 108.20800 | 1090 ft | 149 kts | 356° |
| 2026-04-23 07:07 | 15.98762 | 108.20653 | 899 ft | 147 kts | 355° |
| 2026-04-23 07:07 | 15.99786 | 108.20505 | 695 ft | 150 kts | 352° |
| 2026-04-23 07:07 | 16.00821 | 108.20352 | 548 ft | 152 kts | 355° |
| 2026-04-23 07:08 | 16.01870 | 108.20201 | 319 ft | 149 kts | 357° |
| 2026-04-23 07:08 | 16.02895 | 108.20048 | 95 ft | 148 kts | 355° |
| 2026-04-23 07:08 | 16.03852 | 108.19922 | 33 ft | 117 kts | 352° |
| 2026-04-23 07:08 | 16.04461 | 108.19827 | 35 ft | 62 kts | 353° |
| 2026-04-23 07:09 | 16.04782 | 108.19780 | 35 ft | 21 kts | 351° |
| 2026-04-23 07:09 | 16.04882 | 108.19830 | 35 ft | 16 kts | 75° |
| 2026-04-23 07:09 | 16.04899 | 108.19938 | 34 ft | 15 kts | 83° |
| 2026-04-23 07:09 | 16.04912 | 108.20045 | 32 ft | 15 kts | 82° |
| 2026-04-23 07:10 | 16.04980 | 108.20094 | 32 ft | 13 kts | 353° |
| 2026-04-23 07:10 | 16.05064 | 108.20083 | 33 ft | 12 kts | 352° |
| 2026-04-23 07:10 | 16.05139 | 108.20071 | 33 ft | 11 kts | 352° |
| 2026-04-23 07:10 | 16.05210 | 108.20062 | 33 ft | 10 kts | 352° |
| 2026-04-23 07:11 | 16.05247 | 108.20084 | 33 ft | 6 kts | 71° |
| 2026-04-23 07:11 | 16.05276 | 108.20110 | 33 ft | 5 kts | 36° |
| 2026-04-23 07:11 | 16.05292 | 108.20138 | 32 ft | 4 kts | 75° |
| 2026-04-23 07:12 | 16.05298 | 108.20180 | 32 ft | 0 kts | 83° |